Terminal Aerodrome Forecast
Issued by NWS Cleveland, OH

Home | Current Version | Previous Version | Text Only | Print | Product List | Glossary On
Versions: 1 2 3 4 5 6 7 8 9 10 11 12 13 14 15 16 17 18
000
FTUS41 KCLE 271700
TAFCAK
TAF
KCAK 271738Z 2718/2818 31012KT 4SM -SN BR BKN015 OVC025
     FM271900 30012KT P6SM BKN025 OVC040
     FM280000 30008KT P6SM OVC025
      TEMPO 2800/2804 3SM -SHSN OVC015
     FM280700 30008KT P6SM OVC035
     FM281200 25006KT P6SM SCT035 BKN200=

USA.gov is the U.S. government's official web portal to all federal, state and local government web resources and services.